createdAt,value
2018-08-22T00:00:58.806Z,89.52
2018-08-22T00:03:26.853Z,88.91
2018-08-22T00:05:54.819Z,88.32
2018-08-22T00:08:27.317Z,87.66
2018-08-22T00:10:55.317Z,89.82
2018-08-22T00:13:23.324Z,89.83
2018-08-22T00:15:51.458Z,89.85
2018-08-22T00:18:19.523Z,89.83
2018-08-22T00:20:47.605Z,90.03
2018-08-22T00:23:15.595Z,89.44
2018-08-22T00:25:43.628Z,89.57
2018-08-22T00:28:11.935Z,90.24
2018-08-22T00:30:39.976Z,90.79
2018-08-22T00:33:08.058Z,91.63
2018-08-22T00:35:36.060Z,89.94
2018-08-22T00:38:04.052Z,89.69
2018-08-22T00:40:32.244Z,89.75
2018-08-22T00:43:00.340Z,90.08
2018-08-22T00:45:28.367Z,89.68
2018-08-22T00:47:56.563Z,90.44
2018-08-22T00:50:24.605Z,91.03
2018-08-22T00:52:52.652Z,91.58
2018-08-22T00:55:20.758Z,92.40
2018-08-22T00:57:48.868Z,91.60
2018-08-22T01:00:17.153Z,91.18
2018-08-22T01:02:45.231Z,90.33
2018-08-22T01:05:13.294Z,91.42
2018-08-22T01:07:41.274Z,90.76
2018-08-22T01:10:09.666Z,90.20
2018-08-22T01:12:38.074Z,91.44
2018-08-22T01:15:06.204Z,91.68
2018-08-22T01:17:34.293Z,90.33
2018-08-22T01:20:02.517Z,90.69
2018-08-22T01:22:30.636Z,90.92
2018-08-22T01:24:58.667Z,90.98
2018-08-22T01:27:26.925Z,91.57
2018-08-22T01:29:55.030Z,91.49
2018-08-22T01:32:23.146Z,92.02
2018-08-22T01:34:52.220Z,91.42
2018-08-22T01:37:20.217Z,92.19
2018-08-22T01:39:48.907Z,92.43
2018-08-22T01:42:17.489Z,93.54
2018-08-22T01:44:46.043Z,92.88
2018-08-22T01:47:14.157Z,92.93
2018-08-22T01:49:42.475Z,91.86
2018-08-22T01:52:10.664Z,94.05
2018-08-22T01:54:38.692Z,92.60
2018-08-22T01:57:06.730Z,92.85
2018-08-22T01:59:34.868Z,93.79
2018-08-22T02:02:02.941Z,92.87
2018-08-22T02:04:30.972Z,94.93
2018-08-22T02:06:59.173Z,94.54
2018-08-22T02:09:27.281Z,94.42
2018-08-22T02:11:55.395Z,93.76
2018-08-22T02:14:23.393Z,93.98
2018-08-22T02:16:51.492Z,94.40
2018-08-22T02:19:19.564Z,94.31
2018-08-22T02:21:47.732Z,94.30
2018-08-22T02:24:15.829Z,93.45
2018-08-22T02:26:43.888Z,93.52
2018-08-22T02:29:11.977Z,93.29
2018-08-22T02:31:40.069Z,93.02
2018-08-22T02:34:08.189Z,93.80
2018-08-22T02:36:36.249Z,93.56
2018-08-22T02:39:06.294Z,93.79
2018-08-22T02:41:34.490Z,94.16
2018-08-22T02:44:02.603Z,94.21
2018-08-22T02:46:30.614Z,94.79
2018-08-22T02:48:58.604Z,94.42
2018-08-22T02:51:26.809Z,95.61
2018-08-22T02:53:54.938Z,96.19
2018-08-22T02:56:22.998Z,95.60
2018-08-22T02:58:51.246Z,95.43
2018-08-22T03:01:19.682Z,95.51
2018-08-22T03:03:47.895Z,96.25
2018-08-22T03:06:16.004Z,95.43
2018-08-22T03:08:44.316Z,96.32
2018-08-22T03:11:12.698Z,95.16
2018-08-22T03:13:40.838Z,95.25
2018-08-22T03:16:08.878Z,96.52
2018-08-22T03:18:36.972Z,95.74
2018-08-22T03:22:08.232Z,96.22
2018-08-22T03:24:36.360Z,96.42
2018-08-22T03:27:04.470Z,96.28
2018-08-22T03:29:32.561Z,97.03
2018-08-22T03:32:00.687Z,95.84
2018-08-22T03:34:28.742Z,95.84
2018-08-22T03:36:56.951Z,97.11
2018-08-22T03:39:24.948Z,97.24
2018-08-22T03:41:52.945Z,96.16
2018-08-22T03:44:21.095Z,97.38
2018-08-22T03:46:49.123Z,95.62
2018-08-22T03:49:17.188Z,97.57
2018-08-22T03:51:45.306Z,95.15
2018-08-22T03:54:13.479Z,95.50
2018-08-22T03:56:41.602Z,95.81
2018-08-22T03:59:09.733Z,95.88
2018-08-22T04:01:37.900Z,95.19
2018-08-22T04:04:05.962Z,94.65
2018-08-22T04:06:34.314Z,94.17
2018-08-22T04:09:02.545Z,89.62
2018-08-22T04:11:30.607Z,84.49
2018-08-22T04:13:58.626Z,81.56
2018-08-22T04:16:26.836Z,78.95
2018-08-22T04:18:55.017Z,77.11
2018-08-22T04:21:23.127Z,75.86
2018-08-22T04:23:51.201Z,73.96
2018-08-22T04:26:19.379Z,73.75
2018-08-22T04:28:47.487Z,71.51
2018-08-22T04:31:15.563Z,70.72
2018-08-22T04:33:43.636Z,70.27
2018-08-22T04:36:11.925Z,67.99
2018-08-22T04:38:40.377Z,67.69
2018-08-22T04:41:08.549Z,68.19
2018-08-22T04:43:36.670Z,66.46
2018-08-22T04:46:04.913Z,66.19
2018-08-22T04:48:33.033Z,67.86
2018-08-22T04:51:01.213Z,67.21
2018-08-22T04:53:29.395Z,67.85
2018-08-22T04:55:57.618Z,64.81
2018-08-22T04:58:25.670Z,67.63
2018-08-22T05:00:53.933Z,65.80
2018-08-22T05:03:22.015Z,64.40
2018-08-22T05:05:50.213Z,66.30
2018-08-22T05:08:18.317Z,64.00
2018-08-22T05:10:46.515Z,64.01
2018-08-22T05:13:14.550Z,62.88
2018-08-22T05:15:42.954Z,63.39
2018-08-22T05:18:11.199Z,64.35
2018-08-22T05:20:39.475Z,63.40
2018-08-22T05:23:07.539Z,63.54
2018-08-22T05:25:35.642Z,63.92
2018-08-22T05:28:03.728Z,64.60
2018-08-22T05:30:31.877Z,62.55
2018-08-22T05:33:00.111Z,64.52
2018-08-22T05:35:28.653Z,63.70
2018-08-22T05:37:56.832Z,62.48
2018-08-22T05:40:25.023Z,61.14
2018-08-22T05:42:53.344Z,59.04
2018-08-22T05:45:21.774Z,61.27
2018-08-22T05:47:49.949Z,63.04
2018-08-22T05:50:18.100Z,63.30
2018-08-22T05:52:46.246Z,61.79
2018-08-22T05:55:14.309Z,63.46
2018-08-22T05:57:42.514Z,63.24
2018-08-22T06:00:10.830Z,64.29
2018-08-22T06:02:39.017Z,63.70
2018-08-22T06:05:07.121Z,65.17
2018-08-22T06:07:35.251Z,62.71
2018-08-22T06:10:03.728Z,61.91
2018-08-22T06:12:32.221Z,58.32
2018-08-22T06:15:00.469Z,59.39
2018-08-22T06:17:28.761Z,60.29
2018-08-22T06:19:56.875Z,59.83
2018-08-22T06:22:25.012Z,58.66
2018-08-22T06:24:53.040Z,58.07
2018-08-22T06:27:21.369Z,60.69
2018-08-22T06:29:49.828Z,59.87
2018-08-22T06:32:18.131Z,58.29
2018-08-22T06:34:46.336Z,58.05
2018-08-22T06:37:14.417Z,55.71
2018-08-22T06:39:42.489Z,55.03
2018-08-22T06:42:10.762Z,56.60
2018-08-22T06:44:38.979Z,57.72
2018-08-22T06:47:07.166Z,56.41
2018-08-22T06:49:35.359Z,54.97
2018-08-22T06:52:03.636Z,56.79
2018-08-22T06:54:31.747Z,54.49
2018-08-22T06:56:59.764Z,51.48
2018-08-22T06:59:28.027Z,52.81
2018-08-22T07:01:56.179Z,51.89
2018-08-22T07:04:24.385Z,52.34
2018-08-22T07:06:52.548Z,51.25
2018-08-22T07:09:20.651Z,50.83
2018-08-22T07:11:48.922Z,50.36
2018-08-22T07:14:17.093Z,51.85
2018-08-22T07:16:45.483Z,50.27
2018-08-22T07:19:13.751Z,48.54
2018-08-22T07:21:42.046Z,49.37
2018-08-22T07:24:10.361Z,49.21
2018-08-22T07:26:38.731Z,48.95
2018-08-22T07:29:07.177Z,49.75
2018-08-22T07:31:35.608Z,48.57
2018-08-22T07:34:14.722Z,46.57
2018-08-22T07:36:44.011Z,46.85
2018-08-22T07:39:17.038Z,46.65
2018-08-22T07:41:49.504Z,46.15
2018-08-22T07:44:18.575Z,43.46
2018-08-22T07:46:46.837Z,44.92
2018-08-22T07:49:15.552Z,46.07
2018-08-22T07:51:44.120Z,44.92
2018-08-22T07:54:12.650Z,43.71
2018-08-22T07:56:41.783Z,45.35
2018-08-22T07:59:12.415Z,44.44
2018-08-22T08:01:40.693Z,43.38
2018-08-22T08:04:10.397Z,44.32
2018-08-22T08:06:38.493Z,43.73
2018-08-22T08:09:10.105Z,43.41
2018-08-22T08:11:38.307Z,40.00
2018-08-22T08:14:06.905Z,42.02
2018-08-22T08:16:35.253Z,39.93
2018-08-22T08:19:03.618Z,39.69
2018-08-22T08:21:31.960Z,37.36
2018-08-22T08:24:00.249Z,38.56
2018-08-22T08:26:28.516Z,36.92
2018-08-22T08:29:02.917Z,38.25
2018-08-22T08:31:35.828Z,35.87
2018-08-22T08:34:06.042Z,37.81
2018-08-22T08:36:34.413Z,37.37
2018-08-22T08:39:03.681Z,36.85
2018-08-22T08:41:32.715Z,39.01
2018-08-22T08:44:00.978Z,40.12
2018-08-22T08:46:29.223Z,37.10
2018-08-22T08:48:57.616Z,35.17
2018-08-22T08:51:26.027Z,38.18
2018-08-22T08:53:54.434Z,36.69
2018-08-22T08:56:22.748Z,37.53
2018-08-22T08:58:52.956Z,36.63
2018-08-22T09:01:21.373Z,38.40
2018-08-22T09:03:49.765Z,37.58
2018-08-22T09:06:18.018Z,39.27
2018-08-22T09:08:46.332Z,37.01
2018-08-22T09:11:14.747Z,37.16
2018-08-22T09:13:58.055Z,37.30
2018-08-22T09:16:26.570Z,36.49
2018-08-22T09:18:55.130Z,36.30
2018-08-22T09:21:24.739Z,36.23
2018-08-22T09:23:53.230Z,36.42
2018-08-22T09:26:23.440Z,36.35
2018-08-22T09:28:51.841Z,35.98
2018-08-22T09:31:20.682Z,36.50
2018-08-22T09:33:49.313Z,35.93
2018-08-22T09:36:17.860Z,35.29
2018-08-22T09:38:47.432Z,35.94
2018-08-22T09:41:16.706Z,35.40
2018-08-22T09:43:45.252Z,33.65
2018-08-22T09:46:14.061Z,34.83
2018-08-22T09:48:42.753Z,34.16
2018-08-22T09:51:11.230Z,35.54
2018-08-22T09:53:39.912Z,35.70
2018-08-22T09:56:08.783Z,33.87
2018-08-22T09:58:37.386Z,33.30
2018-08-22T10:01:11.374Z,33.29
2018-08-22T10:03:51.153Z,34.38
2018-08-22T10:06:50.905Z,34.33
2018-08-22T11:45:11.129Z,33.53
2018-08-22T11:47:39.590Z,32.35
2018-08-22T11:50:08.102Z,32.90
2018-08-22T11:52:36.613Z,32.48
2018-08-22T11:55:05.910Z,32.98
2018-08-22T11:57:34.399Z,33.26
2018-08-22T12:00:02.911Z,33.64
2018-08-22T12:02:32.383Z,31.78
2018-08-22T12:05:00.785Z,32.82
2018-08-22T12:07:30.959Z,31.67
2018-08-22T12:09:59.464Z,32.91
2018-08-22T12:12:28.063Z,33.22
2018-08-22T12:14:57.193Z,32.51
2018-08-22T12:17:25.748Z,32.69
2018-08-22T12:19:54.087Z,32.57
2018-08-22T12:22:22.314Z,32.33
2018-08-22T12:24:50.598Z,31.52
2018-08-22T12:27:18.930Z,32.02
2018-08-22T12:29:47.329Z,33.01
2018-08-22T12:32:15.829Z,31.80
2018-08-22T12:34:44.116Z,32.71
2018-08-22T12:37:12.516Z,32.42
2018-08-22T12:39:40.794Z,32.89
2018-08-22T12:42:09.084Z,33.32
2018-08-22T12:44:37.879Z,32.95
2018-08-22T12:47:06.271Z,33.78
2018-08-22T12:49:34.694Z,32.73
2018-08-22T12:52:03.237Z,33.72
2018-08-22T12:54:31.545Z,33.28
2018-08-22T12:57:00.059Z,34.51
2018-08-22T12:59:28.729Z,33.01
2018-08-22T13:01:57.603Z,32.60
2018-08-22T13:04:26.037Z,33.13
2018-08-22T13:06:54.293Z,34.26
2018-08-22T13:09:22.680Z,33.92
2018-08-22T13:11:51.314Z,33.68
2018-08-22T13:14:20.239Z,32.78
2018-08-22T13:16:50.196Z,32.74
2018-08-22T13:19:20.998Z,33.41
2018-08-22T13:21:49.883Z,32.88
2018-08-22T13:24:18.233Z,31.87
2018-08-22T13:26:46.579Z,34.14
2018-08-22T13:29:14.909Z,34.35
2018-08-22T13:31:43.444Z,33.90
2018-08-22T13:34:11.793Z,34.04
2018-08-22T13:36:41.813Z,34.40
2018-08-22T13:39:11.104Z,33.45
2018-08-22T13:41:39.485Z,34.62
2018-08-22T13:44:08.063Z,34.08
2018-08-22T13:46:36.470Z,33.04
2018-08-22T13:49:04.755Z,34.95
2018-08-22T13:51:33.237Z,35.69
2018-08-22T13:54:01.723Z,34.72
2018-08-22T13:56:30.259Z,34.91
2018-08-22T13:58:58.589Z,35.75
2018-08-22T14:01:26.991Z,34.41
2018-08-22T14:03:55.925Z,35.04
2018-08-22T14:06:24.154Z,35.58
2018-08-22T14:08:52.601Z,34.75
2018-08-22T14:11:21.012Z,35.55
2018-08-22T14:13:49.857Z,35.76
2018-08-22T14:16:18.639Z,34.63
2018-08-22T14:18:46.986Z,35.15
2018-08-22T14:21:15.266Z,35.62
2018-08-22T14:23:43.611Z,35.70
2018-08-22T14:26:12.162Z,35.78
2018-08-22T14:28:41.067Z,35.64
2018-08-22T14:31:09.581Z,35.08
2018-08-22T14:33:38.257Z,36.72
2018-08-22T14:36:08.063Z,35.39
2018-08-22T14:38:36.683Z,36.31
2018-08-22T14:41:05.129Z,35.85
2018-08-22T14:43:33.667Z,36.06
2018-08-22T14:46:02.366Z,35.17
2018-08-22T14:48:33.260Z,36.04
2018-08-22T14:51:02.218Z,36.08
2018-08-22T14:53:30.745Z,37.38
2018-08-22T14:55:59.216Z,36.92
2018-08-22T14:58:27.676Z,37.47
2018-08-22T15:00:56.160Z,37.23
2018-08-22T15:03:25.216Z,36.31
2018-08-22T15:05:53.442Z,37.39
2018-08-22T15:08:21.920Z,36.11
2018-08-22T15:10:50.320Z,36.87
2018-08-22T15:13:18.841Z,38.01
2018-08-22T15:15:47.516Z,38.59
2018-08-22T15:18:15.925Z,37.98
2018-08-22T15:20:44.452Z,38.42
2018-08-22T15:23:12.938Z,38.57
2018-08-22T15:25:41.384Z,37.59
2018-08-22T15:28:10.086Z,38.66
2018-08-22T15:30:38.394Z,38.26
2018-08-22T15:33:06.785Z,38.94
2018-08-22T15:35:35.295Z,39.20
2018-08-22T15:38:03.796Z,39.78
2018-08-22T15:40:32.193Z,39.81
2018-08-22T15:43:00.648Z,39.42
2018-08-22T15:45:29.145Z,39.21
2018-08-22T15:47:57.469Z,40.46
2018-08-22T15:50:25.946Z,40.74
2018-08-22T15:52:54.359Z,39.87
2018-08-22T15:55:22.803Z,40.39
2018-08-22T15:58:00.954Z,40.47
2018-08-22T16:00:50.789Z,41.25
2018-08-22T16:03:19.399Z,40.75
2018-08-22T16:05:48.655Z,40.96
2018-08-22T16:08:18.978Z,42.17
2018-08-22T16:10:47.953Z,42.23
2018-08-22T16:13:21.801Z,41.72
2018-08-22T16:15:52.460Z,41.97
2018-08-22T16:18:21.078Z,41.67
2018-08-22T16:20:55.961Z,42.27
2018-08-22T16:23:26.003Z,43.36
2018-08-22T16:25:55.055Z,43.31
2018-08-22T16:28:23.904Z,43.11
2018-08-22T16:30:57.046Z,42.70
2018-08-22T16:33:21.812Z,43.69
2018-08-22T16:35:50.086Z,44.06
2018-08-22T16:38:18.367Z,43.59
2018-08-22T16:40:50.951Z,44.06
2018-08-22T16:43:35.787Z,45.11
2018-08-22T16:46:07.083Z,44.16
2018-08-22T16:48:35.408Z,43.58
2018-08-22T16:51:03.800Z,45.17
2018-08-22T16:53:32.368Z,44.64
2018-08-22T16:56:04.314Z,46.20
2018-08-22T16:58:33.390Z,47.91
2018-08-22T17:01:02.550Z,48.42
2018-08-22T17:03:31.160Z,47.15
2018-08-22T17:06:05.772Z,48.09
2018-08-22T17:08:34.258Z,48.96
2018-08-22T17:11:03.904Z,48.97
2018-08-22T17:13:46.397Z,51.08
2018-08-22T17:16:14.765Z,51.24
2018-08-22T17:18:44.112Z,51.64
2018-08-22T17:21:12.467Z,53.04
2018-08-22T17:23:42.582Z,53.40
2018-08-22T17:26:14.419Z,51.73
2018-08-22T17:28:44.776Z,52.48
2018-08-22T17:31:13.796Z,54.20
2018-08-22T17:33:47.527Z,54.98
2018-08-22T17:36:17.814Z,55.02
2018-08-22T17:38:47.496Z,53.90
2018-08-22T17:41:16.017Z,54.63
2018-08-22T17:43:58.499Z,55.59
2018-08-22T17:46:28.331Z,56.94
2018-08-22T17:48:57.046Z,57.74
2018-08-22T17:51:25.947Z,58.05
2018-08-22T17:53:55.001Z,57.21
2018-08-22T17:56:24.361Z,57.48
2018-08-22T17:58:53.739Z,58.00
2018-08-22T18:01:22.788Z,57.60
2018-08-22T18:03:52.395Z,59.50
2018-08-22T18:06:23.227Z,58.40
2018-08-22T18:08:52.223Z,59.56
2018-08-22T18:11:21.259Z,59.30
2018-08-22T18:13:49.636Z,60.08
2018-08-22T18:16:19.153Z,61.43
2018-08-22T18:18:50.277Z,60.94
2018-08-22T18:21:19.010Z,60.67
2018-08-22T18:23:53.181Z,61.75
2018-08-22T18:26:22.125Z,61.40
2018-08-22T18:28:51.216Z,61.91
2018-08-22T18:31:19.825Z,61.99
2018-08-22T18:34:02.451Z,61.97
2018-08-22T18:36:31.861Z,64.26
2018-08-22T18:39:12.378Z,63.73
2018-08-22T18:41:40.798Z,63.73
2018-08-22T18:44:09.031Z,64.07
2018-08-22T18:46:37.422Z,64.47
2018-08-22T18:49:06.085Z,65.23
2018-08-22T18:51:35.164Z,64.91
2018-08-22T18:54:04.398Z,65.37
2018-08-22T18:56:32.559Z,65.91
2018-08-22T18:59:33.124Z,66.33
2018-08-22T19:02:01.435Z,65.96
2018-08-22T19:04:29.656Z,66.03
2018-08-22T19:06:57.860Z,66.58
2018-08-22T19:09:25.996Z,66.38
2018-08-22T19:11:54.190Z,67.57
2018-08-22T19:14:36.831Z,67.31
2018-08-22T19:17:05.010Z,68.54
2018-08-22T19:19:37.628Z,67.55
2018-08-22T19:22:05.832Z,67.90
2018-08-22T19:24:34.513Z,67.25
2018-08-22T19:27:03.002Z,67.10
2018-08-22T19:29:31.480Z,67.81
2018-08-22T19:31:59.708Z,67.96
2018-08-22T19:34:27.907Z,68.02
2018-08-22T19:36:56.147Z,68.29
2018-08-22T19:39:24.403Z,68.47
2018-08-22T19:41:52.846Z,68.97
2018-08-22T19:44:21.030Z,68.97
2018-08-22T19:46:49.153Z,69.60
2018-08-22T19:49:17.243Z,70.03
2018-08-22T19:51:45.415Z,70.02
2018-08-22T19:54:13.613Z,71.07
2018-08-22T19:56:41.735Z,71.65
2018-08-22T19:59:09.825Z,71.50
2018-08-22T20:01:38.048Z,71.43
2018-08-22T20:04:06.121Z,71.15
2018-08-22T20:06:34.312Z,70.57
2018-08-22T20:09:02.667Z,71.03
2018-08-22T20:11:32.440Z,71.38
2018-08-22T20:14:02.343Z,71.67
2018-08-22T20:16:30.482Z,71.02
2018-08-22T20:19:00.223Z,71.64
2018-08-22T20:21:35.979Z,71.81
2018-08-22T20:24:05.481Z,72.04
2018-08-22T20:26:33.964Z,72.10
2018-08-22T20:29:03.408Z,73.11
2018-08-22T20:31:32.433Z,73.74
2018-08-22T20:34:12.349Z,72.82
2018-08-22T20:36:42.146Z,72.41
2018-08-22T20:39:11.345Z,72.81
2018-08-22T20:41:40.241Z,73.42
2018-08-22T20:44:12.943Z,74.27
2018-08-22T20:46:42.959Z,74.68
2018-08-22T20:49:11.424Z,73.90
2018-08-22T20:51:39.627Z,74.86
2018-08-22T20:54:10.204Z,74.68
2018-08-22T20:56:45.871Z,74.75
2018-08-22T20:59:14.767Z,74.83
2018-08-22T21:01:44.392Z,74.70
2018-08-22T21:04:12.565Z,74.93
2018-08-22T21:06:40.670Z,75.40
2018-08-22T21:09:08.750Z,75.65
2018-08-22T21:11:38.542Z,75.48
2018-08-22T21:14:06.825Z,75.53
2018-08-22T21:16:35.365Z,76.12
2018-08-22T21:19:03.674Z,76.21
2018-08-22T21:21:31.876Z,75.41
2018-08-22T21:24:00.002Z,76.56
2018-08-22T21:26:37.456Z,76.01
2018-08-22T21:29:05.859Z,77.04
2018-08-22T21:31:34.704Z,77.80
2018-08-22T21:34:23.678Z,79.13
2018-08-22T21:36:51.943Z,78.12
2018-08-22T21:39:26.931Z,77.89
2018-08-22T21:41:55.312Z,78.19
2018-08-22T21:44:23.686Z,77.11
2018-08-22T21:46:59.129Z,77.22
2018-08-22T21:49:27.736Z,78.66
2018-08-22T21:51:59.399Z,78.46
2018-08-22T21:54:27.816Z,78.86
2018-08-22T21:56:55.877Z,79.29
2018-08-22T21:59:23.998Z,80.72
2018-08-22T22:01:57.627Z,80.08
2018-08-22T22:04:30.915Z,79.84
2018-08-22T22:06:59.109Z,80.28
2018-08-22T22:09:27.509Z,80.70
2018-08-22T22:11:58.507Z,79.95
2018-08-22T22:14:27.855Z,79.23
2018-08-22T22:16:57.690Z,80.76
2018-08-22T22:19:27.143Z,79.66
2018-08-22T22:21:55.544Z,81.60
2018-08-22T22:24:23.680Z,80.82
2018-08-22T22:26:51.740Z,80.51
2018-08-22T22:29:23.138Z,81.37
2018-08-22T22:31:51.372Z,81.07
2018-08-22T22:34:19.556Z,81.41
2018-08-22T22:36:47.972Z,80.98
2018-08-22T22:39:32.499Z,81.12
2018-08-22T22:42:00.951Z,81.26
2018-08-22T22:44:29.081Z,80.53
2018-08-22T22:46:57.109Z,80.39
2018-08-22T22:49:25.243Z,78.66
2018-08-22T22:51:53.328Z,79.85
2018-08-22T22:54:32.597Z,80.41
2018-08-22T22:57:00.638Z,80.34
2018-08-22T22:59:28.768Z,78.13
2018-08-22T23:01:56.798Z,79.04
2018-08-22T23:04:26.271Z,78.98
2018-08-22T23:07:32.122Z,80.40
2018-08-22T23:10:01.354Z,79.09
2018-08-22T23:12:46.957Z,80.78
2018-08-22T23:15:22.030Z,80.69
2018-08-22T23:17:52.144Z,80.63
2018-08-22T23:20:27.324Z,79.99
2018-08-22T23:22:55.940Z,79.59
2018-08-22T23:25:24.415Z,79.35
2018-08-22T23:27:52.533Z,79.43
2018-08-22T23:30:27.441Z,79.93
2018-08-22T23:32:56.778Z,79.58
2018-08-22T23:35:29.317Z,79.62
2018-08-22T23:37:58.580Z,79.70
2018-08-22T23:40:27.652Z,79.64
2018-08-22T23:42:56.062Z,80.03
2018-08-22T23:45:24.248Z,80.06
2018-08-22T23:47:52.581Z,79.92
2018-08-22T23:50:20.879Z,79.96
2018-08-22T23:52:50.415Z,79.19
2018-08-22T23:55:20.165Z,79.55
2018-08-22T23:57:51.629Z,80.07
